Time;durP1;ratioP1;P1;durP2;ratioP2;P2;SDS_P1;SDS_P2;PMS_P1;PMS_P2;Temp;Humidity;BMP_temperature;BMP_pressure;BME280_temperature;BME280_humidity;BME280_pressure;Samples;Min_cycle;Max_cycle;Signal;HPM_P1;HPM_P2
2021/04/08 00:00:44;;;;;;;1.90;0.90;;;;;;;17.57;51.19;102341.59;6393907;22;19999;-80
2021/04/08 00:03:17;;;;;;;1.30;0.55;;;;;;;17.59;51.29;102351.16;6394825;22;20036;-80
2021/04/08 00:05:43;;;;;;;2.38;1.00;;;;;;;17.57;51.32;102345.09;6393971;22;20002;-79
2021/04/08 00:08:09;;;;;;;2.35;0.90;;;;;;;17.59;51.29;102360.72;6393677;22;20010;-80
2021/04/08 00:10:42;;;;;;;2.22;0.98;;;;;;;17.56;51.18;102347.66;6394209;22;20010;-79
2021/04/08 00:13:09;;;;;;;1.88;0.88;;;;;;;17.56;51.42;102350.28;6393944;22;19987;-79
2021/04/08 00:15:45;;;;;;;2.30;0.90;;;;;;;17.56;50.97;102356.34;6394431;22;20007;-79
2021/04/08 00:18:12;;;;;;;2.13;0.85;;;;;;;17.54;51.19;102350.25;6397157;22;20021;-80
2021/04/08 00:20:38;;;;;;;2.65;0.90;;;;;;;17.57;51.15;102354.59;6392840;22;20009;-79
2021/04/08 00:23:04;;;;;;;2.40;1.00;;;;;;;17.58;51.01;102358.97;6394021;22;20003;-80
2021/04/08 00:25:30;;;;;;;2.60;1.00;;;;;;;17.54;51.12;102358.06;6392696;22;20017;-79
2021/04/08 00:27:57;;;;;;;2.03;0.80;;;;;;;17.57;51.30;102359.81;6393864;22;19990;-79
2021/04/08 00:30:24;;;;;;;1.65;0.77;;;;;;;17.54;51.20;102362.38;6392647;22;20045;-79
2021/04/08 00:32:53;;;;;;;2.22;1.00;;;;;;;17.52;51.12;102351.06;6391131;22;20029;-80
2021/04/08 00:35:19;;;;;;;2.17;0.80;;;;;;;17.54;51.11;102360.66;6368583;22;20013;-81
2021/04/08 00:37:46;;;;;;;2.05;0.73;;;;;;;17.52;50.92;102357.16;6361758;22;20019;-79
2021/04/08 00:40:19;;;;;;;1.40;0.82;;;;;;;17.52;51.20;102346.75;6336772;22;19999;-79
2021/04/08 00:42:46;;;;;;;0.95;0.60;;;;;;;17.52;51.22;102349.34;6359852;22;20020;-79
2021/04/08 00:45:11;;;;;;;1.70;0.77;;;;;;;17.54;51.12;102354.56;6304384;22;20090;-79
2021/04/08 00:47:42;;;;;;;1.95;0.95;;;;;;;17.49;51.01;102344.09;6332798;22;20010;-80
2021/04/08 00:50:19;;;;;;;1.50;0.70;;;;;;;17.51;51.09;102347.59;6358934;22;19999;-79
2021/04/08 00:53:00;;;;;;;1.38;0.68;;;;;;;17.51;51.17;102346.69;6357590;22;20007;-79
2021/04/08 00:55:39;;;;;;;1.92;0.90;;;;;;;17.53;51.02;102347.59;6333253;22;20003;-79
2021/04/08 00:58:08;;;;;;;1.65;0.65;;;;;;;17.52;50.72;102353.69;6358448;22;20030;-79
2021/04/08 01:00:39;;;;;;;1.92;0.77;;;;;;;17.50;51.06;102352.78;6362119;22;20003;-79
2021/04/08 01:03:20;;;;;;;1.85;0.82;;;;;;;17.48;51.07;102353.66;6358152;22;20010;-79
2021/04/08 01:05:48;;;;;;;1.75;0.82;;;;;;;17.51;51.16;102351.91;6355883;22;20002;-79
2021/04/08 01:08:14;;;;;;;1.83;0.75;;;;;;;17.49;51.13;102351.91;6332291;22;20041;-79
2021/04/08 01:10:44;;;;;;;2.67;0.70;;;;;;;17.51;50.98;102357.13;6356001;22;20003;-79
2021/04/08 01:13:13;;;;;;;1.83;0.85;;;;;;;17.49;51.09;102354.50;6328432;22;20033;-79
2021/04/08 01:15:50;;;;;;;1.58;0.65;;;;;;;17.50;51.04;102358.84;6384634;22;20426;-80
2021/04/08 01:18:42;;;;;;;1.80;0.80;;;;;;;17.50;50.97;102360.59;6358048;22;20049;-79
2021/04/08 01:21:36;;;;;;;1.33;0.70;;;;;;;17.49;50.70;102357.13;6358565;22;20014;-79
2021/04/08 01:24:07;;;;;;;1.58;0.70;;;;;;;17.47;50.98;102358.81;6358465;22;20010;-79
2021/04/08 01:27:20;;;;;;;2.45;0.98;;;;;;;17.50;50.90;102360.59;6353175;22;20034;-79
2021/04/08 01:30:11;;;;;;;1.25;0.70;;;;;;;17.46;50.99;102360.56;6328923;22;20018;-80
2021/04/08 01:32:51;;;;;;;1.33;0.63;;;;;;;17.47;50.96;102366.63;6358598;22;19995;-79
2021/04/08 01:35:45;;;;;;;1.55;0.60;;;;;;;17.46;51.08;102367.47;6335954;22;19995;-80
2021/04/08 01:38:22;;;;;;;1.50;0.80;;;;;;;17.46;50.92;102373.56;6335943;22;20013;-80
2021/04/08 01:40:50;;;;;;;2.03;0.70;;;;;;;17.45;50.82;102371.78;6330848;22;19994;-79
2021/04/08 01:43:22;;;;;;;1.25;0.70;;;;;;;17.44;50.93;102367.47;6330877;22;20026;-79
2021/04/08 01:49:21;;;;;;;1.50;0.73;;;;;;;17.45;50.93;102364.00;6331072;22;20021;-80
2021/04/08 01:51:49;;;;;;;1.42;0.70;;;;;;;17.43;50.87;102368.28;6360587;22;19999;-79
2021/04/08 01:54:20;;;;;;;1.30;0.80;;;;;;;17.44;50.74;102370.06;6359064;22;20025;-79
2021/04/08 01:56:48;;;;;;;1.55;0.70;;;;;;;17.43;50.92;102362.22;6361661;22;20007;-79
2021/04/08 01:59:27;;;;;;;2.65;0.70;;;;;;;17.42;50.82;102361.34;6358445;22;20013;-79
2021/04/08 02:02:14;;;;;;;2.47;0.90;;;;;;;17.45;50.97;102371.78;6334400;22;20026;-80
2021/04/08 02:04:40;;;;;;;1.45;0.60;;;;;;;17.45;50.77;102370.94;6360210;22;20014;-79
2021/04/08 02:07:07;;;;;;;1.02;0.60;;;;;;;17.42;50.98;102369.16;6360595;22;20007;-80
2021/04/08 02:09:37;;;;;;;1.65;0.70;;;;;;;17.43;50.75;102367.44;6331688;22;20007;-79
2021/04/08 02:12:12;;;;;;;1.38;0.70;;;;;;;17.42;50.76;102365.66;6332026;22;20077;-80
2021/04/08 02:14:55;;;;;;;1.25;0.68;;;;;;;17.44;50.74;102372.66;6391723;22;20013;-80
2021/04/08 02:17:25;;;;;;;1.23;0.60;;;;;;;17.41;50.74;102362.19;6329835;22;20079;-79
2021/04/08 02:20:05;;;;;;;1.23;0.50;;;;;;;17.41;50.91;102370.00;6328919;22;20007;-79
2021/04/08 02:22:39;;;;;;;0.77;0.50;;;;;;;17.42;50.74;102363.06;6331422;22;20011;-80
2021/04/08 02:25:13;;;;;;;1.90;0.73;;;;;;;17.40;50.69;102363.06;6332318;22;19998;-80
2021/04/08 02:27:41;;;;;;;2.10;0.60;;;;;;;17.43;50.76;102363.09;6351096;22;20450;-79
2021/04/08 02:30:18;;;;;;;2.22;0.80;;;;;;;17.41;50.96;102366.53;6332191;22;20016;-79
2021/04/08 02:32:46;;;;;;;1.45;0.70;;;;;;;17.43;50.87;102362.22;6332920;22;20056;-79
2021/04/08 02:35:21;;;;;;;1.42;0.68;;;;;;;17.41;50.68;102359.59;6360300;22;20003;-80
2021/04/08 02:37:55;;;;;;;2.25;0.60;;;;;;;17.40;50.90;102359.59;6336679;22;20013;-79
2021/04/08 02:40:21;;;;;;;2.47;0.80;;;;;;;17.39;50.99;102363.88;6359332;22;19998;-80
2021/04/08 02:42:49;;;;;;;1.52;0.60;;;;;;;17.40;50.78;102356.97;6361323;22;20003;-79
2021/04/08 02:48:37;;;;;;;1.88;0.70;;;;;;;17.38;50.64;102345.69;6368874;22;20017;-79
2021/04/08 02:51:28;;;;;;;1.13;0.60;;;;;;;17.38;50.77;102353.47;6393565;22;20002;-79
2021/04/08 02:54:43;;;;;;;1.65;0.60;;;;;;;17.41;50.89;102358.72;6365402;22;20046;-80
2021/04/08 02:57:15;;;;;;;1.88;0.60;;;;;;;17.37;50.61;102347.38;6319943;22;20038;-79
2021/04/08 02:59:56;;;;;;;0.93;0.40;;;;;;;17.39;50.73;102353.47;6335883;22;20017;-79
2021/04/08 03:02:35;;;;;;;2.28;0.80;;;;;;;17.38;50.69;102354.34;6334698;22;20000;-79
2021/04/08 03:05:10;;;;;;;1.45;0.63;;;;;;;17.37;50.47;102354.31;6301901;22;20011;-79
2021/04/08 03:08:16;;;;;;;1.58;0.60;;;;;;;17.39;50.59;102355.22;6297373;22;20038;-79
2021/04/08 03:10:50;;;;;;;1.85;0.50;;;;;;;17.36;50.51;102355.19;6270694;22;20068;-79
2021/04/08 03:13:20;;;;;;;1.58;0.52;;;;;;;17.34;50.55;102357.75;6294145;22;20063;-79
2021/04/08 03:15:48;;;;;;;1.30;0.52;;;;;;;17.35;50.51;102356.00;6270598;22;20051;-79
2021/04/08 03:18:33;;;;;;;1.98;0.75;;;;;;;17.37;50.54;102362.13;6243382;22;20027;-80
2021/04/08 03:21:00;;;;;;;1.15;0.43;;;;;;;17.34;50.63;102352.53;6296461;22;20061;-80
2021/04/08 03:23:46;;;;;;;1.17;0.50;;;;;;;17.34;50.33;102355.16;6271681;22;20014;-79
2021/04/08 03:26:13;;;;;;;1.20;0.40;;;;;;;17.31;50.46;102349.91;6270632;22;20084;-79
2021/04/08 03:28:44;;;;;;;2.10;0.77;;;;;;;17.34;50.71;102360.34;6247534;22;20011;-79
2021/04/08 03:31:48;;;;;;;1.98;0.70;;;;;;;17.34;50.50;102354.28;6296222;22;20035;-79
2021/04/08 03:34:22;;;;;;;1.00;0.43;;;;;;;17.34;50.50;102356.88;6299497;22;19987;-80
2021/04/08 03:37:15;;;;;;;0.95;0.50;;;;;;;17.32;50.60;102362.06;6335419;22;20002;-80
2021/04/08 03:40:03;;;;;;;1.80;0.73;;;;;;;17.33;50.36;102355.97;6338578;22;20003;-79
2021/04/08 03:42:38;;;;;;;1.05;0.50;;;;;;;17.31;50.52;102355.13;6309047;22;19999;-79
2021/04/08 03:45:07;;;;;;;1.50;0.70;;;;;;;17.31;50.43;102352.50;6360889;22;20028;-79
2021/04/08 03:47:54;;;;;;;2.35;0.70;;;;;;;17.31;50.48;102352.50;6337107;22;20071;-79
2021/04/08 03:50:23;;;;;;;3.35;0.65;;;;;;;17.28;50.25;102347.25;6329124;22;20007;-78
2021/04/08 03:53:09;;;;;;;1.15;0.52;;;;;;;17.31;50.44;102352.50;6331338;22;20082;-79
2021/04/08 03:55:50;;;;;;;1.40;0.60;;;;;;;17.27;50.49;102346.38;6348226;22;20082;-79
2021/04/08 03:58:19;;;;;;;0.98;0.50;;;;;;;17.29;50.59;102346.41;6363421;22;20038;-78
2021/04/08 04:00:50;;;;;;;1.40;0.63;;;;;;;17.26;50.64;102341.13;6363762;22;20022;-79
2021/04/08 04:03:35;;;;;;;1.13;0.50;;;;;;;17.27;50.33;102348.09;6362541;22;20483;-78
2021/04/08 04:06:13;;;;;;;2.25;0.50;;;;;;;17.26;50.54;102342.00;6361738;22;19990;-79
2021/04/08 04:08:42;;;;;;;1.25;0.52;;;;;;;17.26;50.34;102346.34;6334068;22;20014;-79
2021/04/08 04:11:11;;;;;;;1.17;0.47;;;;;;;17.27;50.63;102353.31;6363918;22;19999;-79
2021/04/08 04:13:41;;;;;;;1.70;0.43;;;;;;;17.25;50.42;102345.47;6336869;22;20018;-79
2021/04/08 04:16:31;;;;;;;1.45;0.40;;;;;;;17.24;50.41;102346.31;6323921;22;20023;-79
2021/04/08 04:18:59;;;;;;;1.50;0.70;;;;;;;17.25;50.56;102350.69;6350426;22;20023;-79
2021/04/08 04:21:27;;;;;;;0.68;0.47;;;;;;;17.24;50.40;102345.44;6355070;22;20048;-79
2021/04/08 04:23:55;;;;;;;0.73;0.50;;;;;;;17.23;50.63;102347.16;6375571;22;20014;-79
2021/04/08 04:26:25;;;;;;;1.10;0.55;;;;;;;17.22;50.43;102347.13;6368368;22;20002;-80
2021/04/08 04:28:58;;;;;;;1.10;0.50;;;;;;;17.22;50.42;102350.63;6368492;22;20093;-80
2021/04/08 04:35:16;;;;;;;1.00;0.40;;;;;;;17.23;50.65;102352.38;6398383;22;20052;-79
2021/04/08 04:40:47;;;;;;;1.23;0.65;;;;;;;17.25;50.29;102349.81;6396217;22;20015;-79
2021/04/08 04:43:14;;;;;;;1.70;0.65;;;;;;;17.21;50.41;102342.81;6398308;22;20016;-79
2021/04/08 04:45:47;;;;;;;1.48;0.50;;;;;;;17.21;50.19;102350.59;6369613;22;20003;-79
2021/04/08 04:48:15;;;;;;;1.23;0.45;;;;;;;17.21;49.95;102348.00;6395750;22;20008;-78
2021/04/08 04:50:53;;;;;;;1.00;0.45;;;;;;;17.24;50.39;102345.44;6395956;22;20006;-79
2021/04/08 04:53:21;;;;;;;0.93;0.50;;;;;;;17.22;50.35;102350.63;6395134;22;20005;-78
2021/04/08 04:55:50;;;;;;;2.35;0.52;;;;;;;17.23;50.34;102356.72;6394832;22;20014;-78
2021/04/08 04:58:35;;;;;;;1.23;0.40;;;;;;;17.23;50.21;102349.78;6359506;22;20018;-79
2021/04/08 05:01:11;;;;;;;0.88;0.50;;;;;;;17.21;50.35;102353.22;6370368;22;20014;-78
2021/04/08 05:03:49;;;;;;;3.20;0.60;;;;;;;17.24;50.39;102353.25;6389842;22;20095;-78
2021/04/08 05:06:19;;;;;;;1.17;0.60;;;;;;;17.27;50.39;102348.09;6384905;22;20023;-78
2021/04/08 05:08:52;;;;;;;1.65;0.60;;;;;;;17.28;50.33;102355.03;6367998;22;20093;-79
2021/04/08 05:11:24;;;;;;;1.92;0.70;;;;;;;17.30;50.25;102349.88;6367229;22;20013;-78
2021/04/08 05:14:34;;;;;;;5.43;0.80;;;;;;;17.44;51.04;102356.16;6327273;22;20015;-79
2021/04/08 05:17:02;;;;;;;1.50;0.70;;;;;;;17.45;50.81;102350.97;6331774;22;20015;-80
2021/04/08 05:19:33;;;;;;;8.25;0.90;;;;;;;17.48;50.91;102350.16;6237499;23;20076;-80
2021/04/08 05:22:02;;;;;;;3.70;0.85;;;;;;;17.48;50.50;102350.16;6233207;23;20005;-80
2021/04/08 05:30:43;;;;;;;4.75;0.68;;;;;;;17.52;50.53;102346.75;6333177;22;20048;-79
2021/04/08 05:33:13;;;;;;;1.77;0.68;;;;;;;17.54;50.35;102350.25;6281404;22;20023;-80
2021/04/08 05:36:08;;;;;;;1.42;0.65;;;;;;;17.59;50.53;102347.69;6322789;22;20015;-79
2021/04/08 05:38:54;;;;;;;3.90;0.70;;;;;;;17.59;50.43;102356.38;6303864;22;20027;-80
2021/04/08 05:41:21;;;;;;;2.80;0.60;;;;;;;17.62;50.34;102353.84;6306331;22;20042;-79
2021/04/08 05:44:06;;;;;;;1.20;0.65;;;;;;;17.62;50.27;102353.84;6318988;22;20054;-80
2021/04/08 05:46:31;;;;;;;2.83;0.85;;;;;;;17.65;50.07;102356.47;6361171;22;20010;-80
2021/04/08 05:49:00;;;;;;;1.90;0.75;;;;;;;17.71;50.24;102355.69;6370062;22;20033;-79
2021/04/08 05:51:51;;;;;;;4.38;0.70;;;;;;;17.75;50.10;102354.03;6398839;22;20003;-81
2021/04/08 05:54:18;;;;;;;1.85;0.68;;;;;;;17.74;49.96;102360.94;6398206;22;20004;-80
2021/04/08 05:56:47;;;;;;;3.35;1.05;;;;;;;17.78;49.84;102364.47;6396220;22;20009;-81
2021/04/08 05:59:33;;;;;;;1.95;0.60;;;;;;;17.81;49.79;102364.50;6315756;22;20007;-80
2021/04/08 06:02:13;;;;;;;1.23;0.63;;;;;;;17.84;49.88;102364.59;6340656;22;20027;-80
2021/04/08 06:04:46;;;;;;;1.65;0.60;;;;;;;17.85;49.64;102358.50;6391389;22;20017;-79
2021/04/08 06:07:21;;;;;;;1.95;0.50;;;;;;;17.88;49.74;102358.56;6366901;22;20011;-80
2021/04/08 06:10:14;;;;;;;4.05;0.95;;;;;;;17.98;49.27;102357.81;6375806;22;20064;-80
2021/04/08 06:12:43;;;;;;;1.45;0.60;;;;;;;18.02;49.08;102357.00;6359259;22;20018;-78
2021/04/08 06:15:14;;;;;;;3.58;0.80;;;;;;;18.07;49.22;102359.66;6361827;22;20383;-78
2021/04/08 06:20:32;;;;;;;4.55;0.70;;;;;;;18.18;48.97;102365.00;6371918;22;20031;-79
2021/04/08 06:23:20;;;;;;;1.67;0.50;;;;;;;18.27;48.31;102363.41;6357766;22;20023;-78
2021/04/08 06:25:55;;;;;;;1.23;0.60;;;;;;;18.41;48.03;102373.97;6373199;22;20326;-79
2021/04/08 06:28:21;;;;;;;1.50;0.68;;;;;;;18.39;48.75;102354.84;6311309;22;20014;-79
2021/04/08 06:30:48;;;;;;;4.53;0.80;;;;;;;18.57;48.73;102356.75;6362368;22;20047;-79
2021/04/08 06:33:13;;;;;;;3.90;0.68;;;;;;;20.68;42.60;102353.78;6352364;22;20010;-90
2021/04/08 06:35:39;;;;;;;0.80;0.50;;;;;;;22.01;39.80;102354.50;6344450;22;20330;-90
2021/04/08 06:38:05;;;;;;;3.20;0.80;;;;;;;23.35;36.38;102354.53;6371087;22;20005;-87
2021/04/08 06:40:30;;;;;;;1.30;0.60;;;;;;;21.04;41.34;102353.84;6370361;22;20028;-89
2021/04/08 06:42:56;;;;;;;0.85;0.50;;;;;;;20.87;42.27;102353.81;6341313;22;20010;-86
2021/04/08 06:45:26;;;;;;;1.92;0.75;;;;;;;21.27;41.50;102348.56;6369508;22;20037;-87
2021/04/08 06:48:10;;;;;;;1.33;0.80;;;;;;;21.48;41.14;102347.69;6369025;22;20002;-85
2021/04/08 06:50:37;;;;;;;3.60;0.70;;;;;;;21.55;41.75;102355.53;6368052;22;20010;-88
2021/04/08 06:53:05;;;;;;;2.65;0.70;;;;;;;21.54;41.90;102352.94;6369806;22;19998;-91
2021/04/08 06:55:31;;;;;;;1.15;0.60;;;;;;;21.47;41.30;102354.69;6371459;22;20337;-83
2021/04/08 06:57:58;;;;;;;1.05;0.70;;;;;;;21.66;41.95;102349.41;6368009;22;20480;-88
2021/04/08 07:00:24;;;;;;;1.23;0.70;;;;;;;21.26;42.00;102349.44;6372546;22;20464;-91
2021/04/08 07:02:50;;;;;;;0.93;0.55;;;;;;;21.11;42.28;102355.56;6347029;22;20003;-87
2021/04/08 07:05:15;;;;;;;2.20;0.50;;;;;;;20.57;43.97;102352.91;6374521;22;20460;-92
2021/04/08 07:07:41;;;;;;;1.42;0.60;;;;;;;19.57;47.04;102356.78;6370376;22;20437;-93
2021/04/08 07:10:26;;;;;;;0.80;0.50;;;;;;;19.06;47.80;102357.28;6374902;22;19991;-92
2021/04/08 07:12:55;;;;;;;0.70;0.43;;;;;;;18.79;48.62;102354.41;6373339;22;20048;-84
2021/04/08 07:15:24;;;;;;;1.13;0.50;;;;;;;18.66;48.83;102362.09;6384467;22;20002;-80
2021/04/08 07:18:21;;;;;;;1.25;0.52;;;;;;;18.59;48.71;102359.41;6395018;22;19990;-82
2021/04/08 07:20:54;;;;;;;1.27;0.60;;;;;;;18.60;48.92;102363.78;6365641;22;20018;-79
2021/04/08 07:23:38;;;;;;;;;;;;;;;18.65;48.43;102367.28;6389821;22;20002;-80
2021/04/08 07:26:12;;;;;;;0.70;0.45;;;;;;;18.58;48.53;102368.97;6389096;22;19910;-79
2021/04/08 07:28:42;;;;;;;1.05;0.55;;;;;;;18.52;48.91;102374.09;6384749;22;20029;-81
2021/04/08 07:31:38;;;;;;;0.47;0.40;;;;;;;18.42;49.07;102369.63;6327638;22;20079;-79
2021/04/08 07:34:08;;;;;;;1.38;0.50;;;;;;;18.35;49.21;102368.69;6358849;22;20026;-80
2021/04/08 07:36:56;;;;;;;0.82;0.50;;;;;;;18.34;49.01;102384.34;6360261;22;20021;-79
2021/04/08 07:39:49;;;;;;;0.47;0.40;;;;;;;18.30;49.12;102359.97;6360400;22;20022;-80
2021/04/08 07:42:33;;;;;;;1.35;0.40;;;;;;;18.32;49.05;102366.06;6361975;22;20034;-79
2021/04/08 07:45:23;;;;;;;1.30;0.60;;;;;;;18.46;48.64;102367.06;6365289;22;20066;-78
2021/04/08 07:48:33;;;;;;;3.20;0.60;;;;;;;18.45;48.71;102362.75;6301050;22;20008;-81
2021/04/08 07:50:58;;;;;;;1.77;0.70;;;;;;;18.43;49.02;102360.97;6245811;23;20019;-81
2021/04/08 07:53:24;;;;;;;1.13;0.65;;;;;;;18.41;48.85;102365.28;6347356;22;20045;-79
2021/04/08 07:56:07;;;;;;;2.58;0.60;;;;;;;18.39;49.23;102362.66;6336691;22;20079;-80
2021/04/08 07:58:33;;;;;;;3.08;0.60;;;;;;;18.41;49.04;102360.09;6339952;22;20006;-80
2021/04/08 08:00:58;;;;;;;0.77;0.40;;;;;;;18.44;48.85;102365.31;6362618;22;20011;-81
2021/04/08 08:03:30;;;;;;;1.10;0.60;;;;;;;18.46;48.83;102377.50;6336510;22;20374;-81
2021/04/08 08:06:00;;;;;;;0.85;0.40;;;;;;;18.45;48.83;102369.69;6361741;22;19999;-80
2021/04/08 08:08:38;;;;;;;1.15;0.60;;;;;;;18.44;48.80;102373.13;6360304;22;20014;-81
2021/04/08 08:11:28;;;;;;;0.82;0.47;;;;;;;18.42;49.03;102365.31;6358708;22;20003;-80
2021/04/08 08:13:56;;;;;;;1.52;0.40;;;;;;;18.44;48.80;102370.53;6363197;22;19995;-81
2021/04/08 08:16:25;;;;;;;1.05;0.50;;;;;;;18.48;48.72;102362.75;6361556;22;20003;-80
2021/04/08 08:22:20;;;;;;;0.90;0.50;;;;;;;18.53;48.72;102367.16;6355131;22;20018;-80
2021/04/08 08:24:55;;;;;;;1.52;0.68;;;;;;;18.42;50.34;102362.72;6353059;22;20315;-80
2021/04/08 08:28:03;;;;;;;2.05;0.60;;;;;;;18.35;53.79;102365.22;6325370;22;20074;-80
2021/04/08 08:31:07;;;;;;;0.93;0.60;;;;;;;18.20;52.29;102371.13;6348733;22;20010;-80
2021/04/08 08:33:29;;;;;;;1.45;0.60;;;;;;;18.04;52.54;102363.13;6351683;22;20010;-80
2021/04/08 08:42:39;;;;;;;2.75;0.60;;;;;;;17.84;53.24;102360.25;6359734;22;20022;-79
2021/04/08 08:45:08;;;;;;;1.85;0.57;;;;;;;17.85;52.87;102359.38;6356269;22;20026;-79
2021/04/08 08:47:49;;;;;;;0.98;0.60;;;;;;;17.95;52.85;102356.94;6359715;22;20017;-79
2021/04/08 08:50:37;;;;;;;1.08;0.60;;;;;;;18.01;52.59;102368.28;6355703;22;20014;-78
2021/04/08 08:55:42;;;;;;;0.88;0.47;;;;;;;18.15;51.79;102358.03;6358959;22;20018;-80
2021/04/08 08:58:09;;;;;;;0.63;0.40;;;;;;;18.18;51.77;102354.59;6357023;22;20007;-78
2021/04/08 09:00:37;;;;;;;1.38;0.68;;;;;;;18.23;52.46;102363.34;6360651;22;20059;-78
2021/04/08 09:03:09;;;;;;;1.42;0.70;;;;;;;18.30;51.48;102353.00;6360348;22;19987;-79
2021/04/08 09:06:09;;;;;;;1.27;0.60;;;;;;;18.23;52.22;102365.97;6383089;22;20010;-82
2021/04/08 09:08:37;;;;;;;1.25;0.60;;;;;;;18.10;52.32;102362.31;6350223;22;20023;-78
2021/04/08 09:11:13;;;;;;;0.82;0.60;;;;;;;18.01;53.24;102354.41;6322939;22;20023;-78
2021/04/08 09:13:59;;;;;;;2.35;0.70;;;;;;;17.95;53.23;102365.59;6328565;22;20013;-79
2021/04/08 09:16:31;;;;;;;0.68;0.60;;;;;;;17.91;53.28;102365.53;6333193;22;20015;-79
2021/04/08 09:19:36;;;;;;;1.05;0.60;;;;;;;17.88;53.33;102363.78;6328693;22;20019;-81
2021/04/08 09:22:10;;;;;;;1.20;0.70;;;;;;;17.84;53.91;102362.84;6319596;22;20019;-80
2021/04/08 09:24:55;;;;;;;1.05;0.55;;;;;;;17.78;54.69;102369.69;6321898;22;20356;-79
2021/04/08 09:27:31;;;;;;;1.23;0.70;;;;;;;17.70;54.04;102359.13;6324309;22;20009;-80
2021/04/08 09:38:49;;;;;;;1.13;0.75;;;;;;;17.68;55.06;102369.56;6323511;22;20029;-82
2021/04/08 09:42:01;;;;;;;1.00;0.60;;;;;;;17.76;53.35;102361.84;6362221;22;20014;-80
2021/04/08 09:44:48;;;;;;;1.65;0.70;;;;;;;17.83;54.48;102363.72;6343801;22;20034;-81
2021/04/08 09:47:34;;;;;;;1.58;0.60;;;;;;;17.90;53.49;102364.69;6344159;22;20015;-77
2021/04/08 09:50:03;;;;;;;1.40;0.50;;;;;;;17.99;52.46;102356.97;6334743;22;20001;-80
2021/04/08 09:53:11;;;;;;;1.02;0.60;;;;;;;18.09;53.42;102361.47;6330001;22;20007;-78
2021/04/08 09:56:00;;;;;;;1.27;0.63;;;;;;;18.14;53.52;102358.00;6374564;22;20018;-78
2021/04/08 09:58:39;;;;;;;1.58;0.57;;;;;;;18.26;52.02;102356.44;6395340;22;20017;-80
2021/04/08 10:04:29;;;;;;;1.02;0.60;;;;;;;18.25;52.94;102351.22;6400201;22;20021;-78
2021/04/08 10:10:07;;;;;;;1.08;0.60;;;;;;;18.32;52.22;102346.94;6374803;22;20023;-81
2021/04/08 11:04:25;;;;;;;1.80;0.82;;;;;;;18.41;52.61;102315.78;6346966;22;20114;-83
2021/04/08 11:09:28;;;;;;;1.70;0.77;;;;;;;18.40;52.86;102316.63;6374681;22;20026;-80
2021/04/08 11:12:17;;;;;;;2.30;0.77;;;;;;;18.40;53.25;102316.63;6355256;22;20006;-82
2021/04/08 11:14:51;;;;;;;1.65;0.82;;;;;;;18.39;53.19;102313.13;6352711;22;20356;-81
2021/04/08 11:17:36;;;;;;;0.82;0.70;;;;;;;18.40;53.19;102319.22;6356297;22;20010;-82
2021/04/08 11:21:13;;;;;;;1.67;0.98;;;;;;;18.36;53.02;102307.03;6322477;22;20023;-82
2021/04/08 11:23:58;;;;;;;1.60;0.70;;;;;;;18.33;52.91;102312.19;6262457;23;20455;-82
2021/04/08 11:26:32;;;;;;;1.25;0.90;;;;;;;18.29;53.31;102309.56;6277980;22;20034;-80
2021/04/08 11:28:58;;;;;;;0.85;0.55;;;;;;;18.29;53.27;102306.97;6324731;22;20027;-82
2021/04/08 11:31:49;;;;;;;0.65;0.57;;;;;;;18.34;53.06;102293.97;6350969;22;20025;-80
2021/04/08 11:34:28;;;;;;;2.22;0.90;;;;;;;18.36;52.80;102296.63;6329176;22;20026;-80
2021/04/08 11:37:22;;;;;;;0.98;0.82;;;;;;;18.42;53.54;102309.69;6361793;22;20010;-82
2021/04/08 11:40:00;;;;;;;1.95;0.55;;;;;;;18.42;52.84;102307.06;6364907;22;20090;-81
2021/04/08 11:45:38;;;;;;;0.77;0.77;;;;;;;18.40;53.76;102312.31;6359174;22;20022;-83
2021/04/08 11:48:10;;;;;;;1.48;0.80;;;;;;;18.41;53.60;102307.94;6335526;22;20066;-80
2021/04/08 11:51:03;;;;;;;0.60;0.60;;;;;;;18.40;54.63;102304.47;6334645;22;20022;-80
2021/04/08 11:54:06;;;;;;;1.10;0.70;;;;;;;18.38;53.34;102306.19;6357598;22;20088;-80
2021/04/08 11:56:46;;;;;;;1.13;0.77;;;;;;;18.35;52.94;102302.66;6376443;22;20027;-80
2021/04/08 11:59:53;;;;;;;0.95;0.68;;;;;;;18.33;53.12;102304.38;6335181;22;20510;-80
2021/04/08 12:05:44;;;;;;;1.17;0.60;;;;;;;18.30;52.93;102300.03;6325040;22;20100;-81
2021/04/08 12:38:39;;;;;;;1.13;0.80;;;;;;;18.39;52.46;102294.03;6351867;22;20029;-81
2021/04/08 12:44:18;;;;;;;3.45;0.73;;;;;;;18.41;52.94;102284.50;6323992;22;20003;-81
2021/04/08 12:46:45;;;;;;;1.27;0.70;;;;;;;18.37;52.64;102282.72;6342545;22;20369;-81
2021/04/08 12:54:24;;;;;;;4.30;0.80;;;;;;;18.44;52.82;102279.28;6358486;22;20010;-82
2021/04/08 12:56:54;;;;;;;3.22;0.80;;;;;;;18.47;52.56;102276.75;6373401;22;20006;-82
2021/04/08 12:59:24;;;;;;;1.33;0.60;;;;;;;18.48;52.42;102268.03;6331779;22;20019;-81
2021/04/08 13:02:20;;;;;;;1.17;0.70;;;;;;;18.48;52.40;102266.31;6258757;22;20053;-81
2021/04/08 13:07:23;;;;;;;1.00;0.70;;;;;;;18.53;52.04;102258.56;6346909;22;20055;-81
2021/04/08 13:09:56;;;;;;;1.30;0.73;;;;;;;18.53;52.47;102255.06;6369621;22;19994;-81
2021/04/08 13:12:24;;;;;;;0.98;0.70;;;;;;;18.52;52.59;102258.53;6395823;22;20013;-81
2021/04/08 13:17:16;;;;;;;1.02;0.73;;;;;;;18.46;52.28;102247.16;6377322;22;20018;-80
2021/04/08 13:20:01;;;;;;;1.67;0.70;;;;;;;18.46;52.58;102254.13;6365804;22;20017;-80
2021/04/08 13:22:58;;;;;;;0.55;0.50;;;;;;;18.47;52.35;102251.53;6389287;22;20022;-82
2021/04/08 13:26:02;;;;;;;1.80;0.82;;;;;;;18.45;52.42;102248.03;6365375;22;20049;-80
2021/04/08 13:28:29;;;;;;;1.25;0.82;;;;;;;18.44;52.21;102240.19;6390167;22;20022;-80
2021/04/08 13:31:03;;;;;;;1.48;0.85;;;;;;;18.43;52.25;102239.34;6392465;22;20002;-81
2021/04/08 13:33:33;;;;;;;0.95;0.60;;;;;;;18.45;52.41;102239.34;6365636;22;20093;-81
2021/04/08 13:51:43;;;;;;;1.92;0.63;;;;;;;18.50;52.21;102232.44;6358736;22;20009;-81
2021/04/08 13:54:27;;;;;;;0.95;0.70;;;;;;;18.51;52.01;102221.16;6329500;22;20015;-82
2021/04/08 13:56:53;;;;;;;0.98;0.70;;;;;;;18.52;51.98;102227.25;6325355;22;20007;-80
2021/04/08 13:59:19;;;;;;;1.60;0.70;;;;;;;18.47;52.00;102227.22;6329523;22;20031;-81
2021/04/08 14:04:27;;;;;;;0.85;0.60;;;;;;;18.45;52.18;102216.75;6358783;22;20034;-82
2021/04/08 14:06:57;;;;;;;2.75;0.80;;;;;;;18.45;51.93;102218.50;6287950;22;20006;-81
2021/04/08 14:13:24;;;;;;;1.70;0.60;;;;;;;18.47;52.65;102222.00;6362062;22;20032;-83
2021/04/08 14:19:33;;;;;;;2.05;0.65;;;;;;;18.40;52.20;102221.06;6367126;22;20059;-82
2021/04/08 14:24:42;;;;;;;2.08;0.60;;;;;;;18.41;53.10;102217.59;6395079;22;20019;-81
2021/04/08 14:27:15;;;;;;;1.45;0.73;;;;;;;18.38;52.33;102206.25;6393467;22;20006;-80
2021/04/08 14:29:42;;;;;;;0.60;0.50;;;;;;;18.41;52.29;102211.50;6365725;22;20031;-81
2021/04/08 14:32:30;;;;;;;0.98;0.60;;;;;;;18.42;52.09;102200.22;6340644;22;20013;-81
2021/04/08 14:35:00;;;;;;;0.63;0.60;;;;;;;18.41;52.01;102196.75;6388455;22;20054;-79
2021/04/08 14:37:27;;;;;;;0.80;0.55;;;;;;;18.42;54.02;102201.13;6393156;22;20021;-82
2021/04/08 14:42:21;;;;;;;1.02;0.60;;;;;;;18.45;52.21;102197.66;6387871;22;20026;-80
2021/04/08 14:44:49;;;;;;;2.22;0.80;;;;;;;18.43;52.45;102188.94;6316037;22;20023;-81
2021/04/08 14:47:15;;;;;;;1.17;0.63;;;;;;;18.47;51.83;102195.94;6333067;22;19998;-80
2021/04/08 14:49:43;;;;;;;1.67;0.60;;;;;;;18.55;52.34;102195.97;6359212;22;20033;-80
2021/04/08 14:52:10;;;;;;;0.57;0.55;;;;;;;18.56;51.79;102184.72;6362416;22;20046;-80
2021/04/08 14:54:49;;;;;;;0.80;0.60;;;;;;;18.58;52.17;102189.06;6362649;22;19999;-80
2021/04/08 14:57:17;;;;;;;1.00;0.63;;;;;;;18.56;51.56;102171.69;6361645;22;20002;-80
2021/04/08 15:00:28;;;;;;;0.82;0.70;;;;;;;18.56;51.94;102171.69;6333892;22;20003;-80
2021/04/08 15:02:56;;;;;;;1.25;0.70;;;;;;;18.56;51.65;102164.72;6265217;23;20011;-80
2021/04/08 15:05:47;;;;;;;1.85;0.60;;;;;;;18.53;51.94;102156.88;6264693;23;20047;-80
2021/04/08 15:08:16;;;;;;;3.42;0.77;;;;;;;18.54;51.71;102162.97;6265048;23;20046;-80
2021/04/08 15:11:01;;;;;;;2.25;0.60;;;;;;;18.51;52.03;102158.63;6237792;23;20011;-80